createdAt,value
2022-12-08T00:00:11.359Z,7.82
2022-12-08T00:02:44.593Z,11.57
2022-12-08T00:05:30.957Z,9.30
2022-12-08T00:08:16.928Z,7.30
2022-12-08T00:10:49.293Z,5.97
2022-12-08T00:13:18.770Z,7.53
2022-12-08T00:15:48.815Z,5.20
2022-12-08T00:18:17.448Z,7.70
2022-12-08T00:20:46.119Z,7.15
2022-12-08T00:23:14.824Z,8.50
2022-12-08T00:25:43.507Z,7.70
2022-12-08T00:28:12.202Z,12.70
2022-12-08T00:30:41.617Z,11.20
2022-12-08T00:33:12.668Z,9.88
2022-12-08T00:35:43.311Z,9.07
2022-12-08T00:38:12.244Z,7.70
2022-12-08T00:40:46.425Z,8.57
2022-12-08T00:43:15.574Z,10.43
2022-12-08T00:45:44.832Z,12.35
2022-12-08T00:48:14.915Z,6.97
2022-12-08T00:50:43.657Z,8.32
2022-12-08T00:53:12.341Z,13.43
2022-12-08T00:55:41.014Z,10.63
2022-12-08T00:58:09.674Z,7.90
2022-12-08T01:00:38.378Z,8.45
2022-12-08T01:03:07.041Z,9.30
2022-12-08T01:05:37.089Z,8.03
2022-12-08T01:08:07.661Z,7.40
2022-12-08T01:10:37.419Z,10.45
2022-12-08T01:13:06.697Z,13.68
2022-12-08T01:15:35.401Z,7.78
2022-12-08T01:18:04.109Z,5.90
2022-12-08T01:20:32.843Z,9.55
2022-12-08T01:23:03.045Z,10.68
2022-12-08T01:25:31.723Z,11.18
2022-12-08T01:28:00.408Z,11.00
2022-12-08T01:30:29.247Z,9.53
2022-12-08T01:32:59.153Z,9.85
2022-12-08T01:35:27.814Z,10.77
2022-12-08T01:37:56.528Z,7.43
2022-12-08T01:40:26.587Z,7.95
2022-12-08T01:42:55.236Z,8.23
2022-12-08T01:45:28.270Z,10.50
2022-12-08T01:48:01.759Z,8.38
2022-12-08T01:50:32.002Z,11.30
2022-12-08T01:53:09.051Z,9.32
2022-12-08T01:55:44.475Z,7.80
2022-12-08T01:58:19.729Z,10.88
2022-12-08T02:00:49.605Z,10.90
2022-12-08T02:03:28.323Z,9.50
2022-12-08T02:05:57.015Z,7.68
2022-12-08T02:08:27.199Z,9.90
2022-12-08T02:10:57.342Z,11.18
2022-12-08T02:13:26.979Z,6.20
2022-12-08T02:16:06.372Z,12.88
2022-12-08T02:19:28.621Z,7.28
2022-12-08T02:21:59.718Z,13.87
2022-12-08T02:24:39.998Z,12.07
2022-12-08T02:27:33.934Z,11.82
2022-12-08T02:30:16.266Z,6.05
2022-12-08T02:33:29.157Z,6.03
2022-12-08T02:36:06.026Z,7.93
2022-12-08T02:38:49.174Z,12.82
2022-12-08T02:41:29.761Z,12.27
2022-12-08T02:44:07.365Z,7.18
2022-12-08T02:46:42.095Z,12.00
2022-12-08T02:49:14.718Z,8.17
2022-12-08T02:51:44.910Z,9.75
2022-12-08T02:54:14.467Z,10.45
2022-12-08T02:57:08.261Z,13.80
2022-12-08T03:00:03.834Z,11.25
2022-12-08T03:03:06.882Z,11.07
2022-12-08T03:05:58.936Z,11.10
2022-12-08T03:08:40.221Z,10.18
2022-12-08T03:11:20.454Z,6.32
2022-12-08T03:13:54.128Z,15.30
2022-12-08T03:16:27.363Z,9.43
2022-12-08T03:19:04.085Z,12.80
2022-12-08T03:21:36.428Z,14.90
2022-12-08T03:24:11.187Z,14.05
2022-12-08T03:26:49.764Z,13.13
2022-12-08T03:29:18.980Z,9.87
2022-12-08T03:31:54.561Z,10.70
2022-12-08T03:34:27.449Z,10.82
2022-12-08T03:36:56.280Z,14.77
2022-12-08T03:39:26.570Z,7.30
2022-12-08T03:41:56.938Z,15.43
2022-12-08T03:44:25.631Z,14.88
2022-12-08T03:46:54.422Z,10.57
2022-12-08T03:49:23.082Z,15.70
2022-12-08T03:51:52.360Z,10.73
2022-12-08T03:54:21.198Z,13.67
2022-12-08T03:56:51.619Z,7.20
2022-12-08T03:59:20.345Z,12.23
2022-12-08T04:01:49.257Z,7.00
2022-12-08T04:04:19.052Z,7.00
2022-12-08T04:06:47.779Z,11.80
2022-12-08T04:09:16.513Z,10.05
2022-12-08T04:11:45.498Z,12.50
2022-12-08T04:14:15.592Z,13.65
2022-12-08T04:16:44.302Z,10.85
2022-12-08T04:19:13.015Z,11.73
2022-12-08T04:21:41.646Z,23.05
2022-12-08T04:24:11.136Z,13.48
2022-12-08T04:26:39.810Z,14.13
2022-12-08T04:29:08.579Z,13.38
2022-12-08T04:31:39.132Z,14.90
2022-12-08T04:34:07.918Z,8.93
2022-12-08T04:36:36.778Z,10.00
2022-12-08T04:39:05.839Z,11.45
2022-12-08T04:41:34.976Z,10.88
2022-12-08T04:44:03.659Z,13.47
2022-12-08T04:46:32.509Z,12.27
2022-12-08T04:49:02.627Z,12.25
2022-12-08T04:51:31.356Z,10.57
2022-12-08T04:54:00.083Z,9.65
2022-12-08T04:56:28.805Z,13.37
2022-12-08T04:58:57.465Z,6.28
2022-12-08T05:01:26.564Z,7.53
2022-12-08T05:03:55.308Z,15.38
2022-12-08T05:06:25.654Z,9.35
2022-12-08T05:08:54.412Z,14.07
2022-12-08T05:11:23.070Z,10.70
2022-12-08T05:13:51.785Z,9.40
2022-12-08T05:16:20.483Z,6.70
2022-12-08T05:18:49.372Z,8.38
2022-12-08T05:21:18.132Z,9.27
2022-12-08T05:23:48.175Z,20.13
2022-12-08T05:26:16.851Z,11.82
2022-12-08T05:28:45.806Z,8.57
2022-12-08T05:31:17.202Z,9.07
2022-12-08T05:33:47.556Z,15.63
2022-12-08T05:36:17.912Z,11.55
2022-12-08T05:38:48.588Z,12.07
2022-12-08T05:41:20.716Z,13.13
2022-12-08T05:43:50.223Z,14.20
2022-12-08T05:46:19.632Z,10.70
2022-12-08T05:48:48.509Z,12.57
2022-12-08T05:51:20.573Z,14.38
2022-12-08T05:53:51.649Z,11.88
2022-12-08T05:56:21.857Z,14.07
2022-12-08T05:58:51.236Z,13.77
2022-12-08T06:01:22.923Z,12.82
2022-12-08T06:03:51.981Z,13.65
2022-12-08T06:06:21.193Z,12.13
2022-12-08T06:08:51.346Z,16.27
2022-12-08T06:11:21.462Z,10.77
2022-12-08T06:13:51.163Z,6.70
2022-12-08T06:16:20.377Z,11.52
2022-12-08T06:18:49.247Z,14.38
2022-12-08T06:21:19.109Z,10.20
2022-12-08T06:23:52.634Z,14.67
2022-12-08T06:26:22.668Z,9.45
2022-12-08T06:28:52.105Z,9.15
2022-12-08T06:31:24.323Z,5.13
2022-12-08T06:33:54.643Z,9.65
2022-12-08T06:36:25.949Z,15.93
2022-12-08T06:38:56.147Z,15.75
2022-12-08T06:41:25.195Z,10.25
2022-12-08T06:43:56.558Z,8.73
2022-12-08T06:46:25.839Z,11.25
2022-12-08T06:48:55.232Z,11.13
2022-12-08T06:51:24.059Z,14.75
2022-12-08T06:53:52.688Z,13.23
2022-12-08T06:56:27.989Z,12.75
2022-12-08T06:58:56.865Z,13.77
2022-12-08T07:01:25.589Z,12.33
2022-12-08T07:03:55.542Z,10.05
2022-12-08T07:06:26.260Z,11.15
2022-12-08T07:08:54.991Z,10.07
2022-12-08T07:11:25.160Z,13.60
2022-12-08T07:13:54.776Z,13.07
2022-12-08T07:16:23.566Z,13.75
2022-12-08T07:18:52.419Z,7.07
2022-12-08T07:21:21.189Z,17.13
2022-12-08T07:23:57.277Z,15.27
2022-12-08T07:26:28.026Z,8.40
2022-12-08T07:28:56.829Z,11.25
2022-12-08T07:31:28.531Z,10.02
2022-12-08T07:33:58.519Z,10.82
2022-12-08T07:36:28.140Z,8.65
2022-12-08T07:38:56.901Z,10.70
2022-12-08T07:41:28.369Z,14.85
2022-12-08T07:43:58.347Z,14.93
2022-12-08T07:46:28.001Z,8.18
2022-12-08T07:48:57.392Z,9.90
2022-12-08T07:51:26.243Z,14.93
2022-12-08T07:53:55.543Z,14.40
2022-12-08T07:56:25.014Z,11.70
2022-12-08T07:58:55.180Z,10.00
2022-12-08T08:01:28.111Z,13.18
2022-12-08T08:04:01.523Z,13.23
2022-12-08T08:06:30.461Z,10.75
2022-12-08T08:08:59.140Z,14.32
2022-12-08T08:11:27.845Z,15.60
2022-12-08T08:13:58.699Z,10.02
2022-12-08T08:16:28.503Z,9.33
2022-12-08T08:18:58.771Z,16.02
2022-12-08T08:24:16.287Z,9.63
2022-12-08T08:26:45.111Z,10.13
2022-12-08T08:29:15.145Z,10.20
2022-12-08T08:31:43.928Z,9.43
2022-12-08T08:34:13.417Z,17.58
2022-12-08T08:36:42.115Z,11.48
2022-12-08T08:39:10.789Z,9.68
2022-12-08T08:41:39.539Z,13.03
2022-12-08T08:44:08.361Z,13.98
2022-12-08T08:46:38.425Z,13.00
2022-12-08T08:49:07.172Z,15.50
2022-12-08T08:51:35.819Z,7.70
2022-12-08T08:54:04.621Z,7.33
2022-12-08T08:56:33.307Z,4.95
2022-12-08T08:59:03.148Z,10.93
2022-12-08T09:01:32.126Z,11.02
2022-12-08T09:04:02.553Z,12.15
2022-12-08T09:06:31.388Z,8.37
2022-12-08T09:09:00.233Z,11.70
2022-12-08T09:11:28.978Z,8.82
2022-12-08T09:13:57.805Z,12.88
2022-12-08T09:16:26.687Z,11.27
2022-12-08T09:18:55.639Z,8.70
2022-12-08T09:21:27.997Z,10.27
2022-12-08T09:24:00.027Z,9.52
2022-12-08T09:26:30.059Z,11.18
2022-12-08T09:28:59.411Z,13.02
2022-12-08T09:31:28.353Z,9.50
2022-12-08T09:33:57.111Z,11.02
2022-12-08T09:36:27.867Z,11.45
2022-12-08T09:38:56.515Z,10.40
2022-12-08T09:41:39.284Z,6.93
2022-12-08T09:44:45.402Z,16.37
2022-12-08T09:47:22.728Z,10.93
2022-12-08T09:50:00.948Z,11.90
2022-12-08T09:52:39.514Z,10.85
2022-12-08T09:55:22.354Z,11.95
2022-12-08T09:58:01.961Z,7.67
2022-12-08T10:00:30.731Z,12.70
2022-12-08T10:03:00.178Z,12.88
2022-12-08T10:05:31.229Z,11.70
2022-12-08T10:08:13.591Z,14.88
2022-12-08T10:10:58.332Z,11.53
2022-12-08T10:13:39.406Z,11.10
2022-12-08T10:16:29.509Z,12.40
2022-12-08T10:19:12.334Z,10.65
2022-12-08T10:21:42.087Z,8.77
2022-12-08T10:24:26.120Z,15.40
2022-12-08T10:26:57.957Z,12.68
2022-12-08T10:29:26.679Z,13.73
2022-12-08T10:31:57.252Z,11.25
2022-12-08T10:34:26.213Z,15.02
2022-12-08T10:36:58.634Z,9.57
2022-12-08T10:39:38.455Z,9.90
2022-12-08T10:42:21.473Z,14.00
2022-12-08T10:45:00.308Z,11.32
2022-12-08T10:47:31.658Z,11.15
2022-12-08T10:50:25.627Z,8.73
2022-12-08T10:53:00.235Z,13.15
2022-12-08T10:55:41.787Z,11.18
2022-12-08T10:58:33.876Z,10.60
2022-12-08T11:01:08.074Z,6.22
2022-12-08T11:03:48.892Z,11.27
2022-12-08T11:06:21.747Z,10.70
2022-12-08T11:08:55.206Z,10.05
2022-12-08T11:11:40.672Z,13.73
2022-12-08T11:14:15.347Z,8.98
2022-12-08T11:16:45.248Z,14.87
2022-12-08T11:19:19.727Z,9.02
2022-12-08T11:21:49.376Z,11.75
2022-12-08T11:24:27.340Z,12.05
2022-12-08T11:27:07.650Z,15.38
2022-12-08T11:29:37.658Z,10.03
2022-12-08T11:32:13.714Z,8.77
2022-12-08T11:34:48.011Z,6.15
2022-12-08T11:37:24.136Z,11.07
2022-12-08T11:39:59.544Z,11.63
2022-12-08T11:42:39.735Z,12.93
2022-12-08T11:45:16.360Z,10.18
2022-12-08T11:47:55.584Z,12.52
2022-12-08T11:50:30.873Z,11.15
2022-12-08T11:53:02.917Z,12.15
2022-12-08T11:55:40.695Z,15.50
2022-12-08T11:58:20.887Z,9.10
2022-12-08T12:00:50.909Z,11.90
2022-12-08T12:03:30.002Z,7.72
2022-12-08T12:06:46.354Z,13.48
2022-12-08T12:09:19.043Z,11.27
2022-12-08T12:12:15.968Z,10.65
2022-12-08T12:15:34.068Z,11.60
2022-12-08T12:18:16.547Z,12.32
2022-12-08T12:20:55.643Z,12.93
2022-12-08T12:23:37.449Z,15.90
2022-12-08T12:26:08.985Z,12.60
2022-12-08T12:28:54.726Z,11.82
2022-12-08T12:31:29.966Z,12.07
2022-12-08T12:34:10.221Z,11.57
2022-12-08T12:36:56.190Z,14.53
2022-12-08T12:39:31.155Z,13.73
2022-12-08T12:42:02.698Z,14.30
2022-12-08T12:44:44.536Z,19.23
2022-12-08T12:47:56.708Z,10.93
2022-12-08T12:50:46.104Z,14.53
2022-12-08T12:53:50.878Z,11.48
2022-12-08T12:56:56.592Z,14.07
2022-12-08T12:59:53.288Z,13.38
2022-12-08T13:02:30.006Z,15.98
2022-12-08T13:05:04.536Z,11.90
2022-12-08T13:07:37.355Z,15.35
2022-12-08T13:10:19.524Z,15.18
2022-12-08T13:13:07.048Z,15.35
2022-12-08T13:15:39.596Z,8.65
2022-12-08T13:18:22.344Z,15.07
2022-12-08T13:20:55.973Z,12.93
2022-12-08T13:23:49.076Z,9.32
2022-12-08T13:26:22.152Z,13.95
2022-12-08T13:29:23.761Z,13.50
2022-12-08T13:31:55.447Z,9.87
2022-12-08T13:34:39.357Z,8.75
2022-12-08T13:37:28.667Z,12.93
2022-12-08T13:40:05.150Z,8.75
2022-12-08T13:42:44.691Z,13.63
2022-12-08T13:45:48.702Z,14.43
2022-12-08T13:48:33.186Z,15.80
2022-12-08T13:53:15.835Z,6.32
2022-12-08T13:57:28.838Z,12.18
2022-12-08T14:00:02.477Z,11.60
2022-12-08T14:02:48.899Z,11.43
2022-12-08T14:05:29.817Z,12.52
2022-12-08T14:08:57.080Z,8.55
2022-12-08T14:11:34.755Z,11.60
2022-12-08T14:14:07.521Z,10.53
2022-12-08T14:16:41.223Z,7.55
2022-12-08T14:19:28.633Z,9.13
2022-12-08T14:22:05.383Z,9.88
2022-12-08T14:24:38.287Z,11.07
2022-12-08T14:27:10.406Z,9.67
2022-12-08T14:29:44.262Z,7.82
2022-12-08T14:32:32.994Z,12.93
2022-12-08T14:35:14.706Z,7.57
2022-12-08T14:37:47.896Z,12.07
2022-12-08T14:40:24.766Z,13.50
2022-12-08T14:43:14.951Z,11.15
2022-12-08T14:45:53.572Z,12.30
2022-12-08T14:48:25.401Z,9.75
2022-12-08T14:51:07.262Z,12.70
2022-12-08T14:53:42.165Z,15.73
2022-12-08T14:56:22.037Z,5.68
2022-12-08T14:59:05.429Z,8.70
2022-12-08T15:01:35.977Z,13.68
2022-12-08T15:04:11.527Z,9.63
2022-12-08T15:06:52.054Z,11.83
2022-12-08T15:09:36.696Z,9.93
2022-12-08T15:12:23.254Z,11.25
2022-12-08T15:15:00.908Z,14.40
2022-12-08T15:17:36.617Z,13.07
2022-12-08T15:20:09.836Z,13.07
2022-12-08T15:22:38.534Z,17.40
2022-12-08T15:25:13.971Z,13.02
2022-12-08T15:27:50.434Z,18.50
2022-12-08T15:30:20.880Z,13.48
2022-12-08T15:32:52.363Z,16.60
2022-12-08T15:35:21.594Z,14.02
2022-12-08T15:37:50.413Z,15.05
2022-12-08T15:40:22.962Z,19.63
2022-12-08T15:42:53.041Z,21.33
2022-12-08T15:45:29.664Z,12.37
2022-12-08T15:47:58.930Z,10.93
2022-12-08T15:50:27.808Z,16.00
2022-12-08T15:52:56.515Z,12.48
2022-12-08T15:55:25.308Z,16.52
2022-12-08T16:00:54.146Z,12.63
2022-12-08T16:04:19.832Z,18.75
2022-12-08T16:07:04.821Z,19.38
2022-12-08T16:09:22.566Z,17.95
2022-12-08T16:12:12.519Z,17.00
2022-12-08T16:17:35.151Z,11.00
2022-12-08T16:20:06.037Z,17.08
2022-12-08T16:25:46.245Z,11.60
2022-12-08T16:28:52.083Z,16.60
2022-12-08T16:31:13.333Z,14.98
2022-12-08T16:33:45.626Z,15.55
2022-12-08T16:36:14.419Z,12.70
2022-12-08T16:38:47.690Z,17.03
2022-12-08T16:41:36.324Z,16.73
2022-12-08T16:44:07.491Z,18.70
2022-12-08T16:46:42.907Z,13.75
2022-12-08T16:49:15.681Z,19.85
2022-12-08T16:51:49.926Z,15.70
2022-12-08T16:54:20.793Z,18.90
2022-12-08T16:56:59.720Z,14.98
2022-12-08T16:59:35.388Z,13.23
2022-12-08T17:02:16.589Z,15.75
2022-12-08T17:04:47.152Z,19.23
2022-12-08T17:07:16.393Z,15.32
2022-12-08T17:09:46.368Z,15.05
2022-12-08T17:12:15.855Z,14.82
2022-12-08T17:14:44.729Z,10.85
2022-12-08T17:17:15.853Z,16.13
2022-12-08T17:19:45.668Z,16.15
2022-12-08T17:22:15.427Z,17.10
2022-12-08T17:24:44.488Z,14.32
2022-12-08T17:27:13.384Z,15.27
2022-12-08T17:29:42.155Z,12.83
2022-12-08T17:32:10.927Z,5.88
2022-12-08T17:34:41.106Z,16.70
2022-12-08T17:37:10.116Z,11.70
2022-12-08T17:39:39.230Z,14.38
2022-12-08T17:42:08.148Z,16.10
2022-12-08T17:44:40.083Z,12.60
2022-12-08T17:47:09.105Z,10.68
2022-12-08T17:49:37.906Z,14.60
2022-12-08T17:52:23.748Z,14.90
2022-12-08T17:54:54.922Z,14.20
2022-12-08T17:57:23.558Z,16.17
2022-12-08T17:59:54.551Z,16.48
2022-12-08T18:02:23.345Z,12.95
2022-12-08T18:04:52.130Z,16.52
2022-12-08T18:07:24.319Z,16.60
2022-12-08T18:09:53.251Z,10.40
2022-12-08T18:12:23.868Z,15.20
2022-12-08T18:14:54.710Z,14.45
2022-12-08T18:17:23.549Z,16.35
2022-12-08T18:19:52.322Z,12.30
2022-12-08T18:22:22.470Z,14.20
2022-12-08T18:24:51.207Z,12.35
2022-12-08T18:27:20.027Z,15.25
2022-12-08T18:29:48.772Z,14.00
2022-12-08T18:32:17.547Z,14.43
2022-12-08T18:34:46.373Z,14.10
2022-12-08T18:37:15.059Z,12.93
2022-12-08T18:39:45.185Z,13.60
2022-12-08T18:42:28.005Z,12.13
2022-12-08T18:45:02.875Z,14.13
2022-12-08T18:47:35.485Z,14.65
2022-12-08T18:50:05.618Z,14.65
2022-12-08T18:52:35.112Z,14.50
2022-12-08T18:55:07.221Z,12.65
2022-12-08T18:57:37.672Z,13.17
2022-12-08T19:00:08.984Z,8.68
2022-12-08T19:02:39.782Z,15.18
2022-12-08T19:05:10.323Z,15.18
2022-12-08T19:07:39.757Z,12.48
2022-12-08T19:10:11.653Z,12.67
2022-12-08T19:12:42.148Z,10.55
2022-12-08T19:15:12.151Z,10.18
2022-12-08T19:17:40.779Z,8.77
2022-12-08T19:20:11.282Z,8.32
2022-12-08T19:22:40.108Z,7.87
2022-12-08T19:25:10.844Z,6.20
2022-12-08T19:27:39.578Z,5.93
2022-12-08T19:30:10.920Z,6.30
2022-12-08T19:32:39.573Z,6.22
2022-12-08T19:35:09.111Z,7.40
2022-12-08T19:37:46.780Z,6.32
2022-12-08T19:40:34.394Z,5.80
2022-12-08T19:43:20.328Z,4.63
2022-12-08T19:45:49.019Z,4.65
2022-12-08T19:48:17.666Z,5.87
2022-12-08T19:50:46.293Z,4.13
2022-12-08T19:53:16.968Z,5.63
2022-12-08T19:55:46.939Z,6.03
2022-12-08T19:58:15.699Z,5.25
2022-12-08T20:00:46.093Z,4.47
2022-12-08T20:03:17.682Z,5.80
2022-12-08T20:05:49.624Z,6.25
2022-12-08T20:08:18.729Z,6.47
2022-12-08T20:10:48.784Z,7.45
2022-12-08T20:13:35.063Z,5.53
2022-12-08T20:16:03.762Z,6.80
2022-12-08T20:18:32.675Z,6.07
2022-12-08T20:21:01.589Z,6.68
2022-12-08T20:23:30.347Z,5.63
2022-12-08T20:26:00.803Z,5.17
2022-12-08T20:28:29.563Z,6.40
2022-12-08T20:30:58.349Z,5.78
2022-12-08T20:33:27.117Z,6.78
2022-12-08T20:36:00.428Z,5.03
2022-12-08T20:38:30.155Z,4.80
2022-12-08T20:41:00.809Z,4.63
2022-12-08T20:43:29.450Z,6.78
2022-12-08T20:45:58.104Z,5.18
2022-12-08T20:48:27.000Z,7.88
2022-12-08T20:50:55.958Z,5.67
2022-12-08T20:53:24.807Z,3.97
2022-12-08T20:55:53.428Z,5.75
2022-12-08T20:58:24.080Z,4.72
2022-12-08T21:00:52.948Z,5.03
2022-12-08T21:03:21.979Z,5.33
2022-12-08T21:05:52.158Z,5.18
2022-12-08T21:08:25.159Z,4.70
2022-12-08T21:10:58.231Z,4.70
2022-12-08T21:13:30.103Z,6.38
2022-12-08T21:15:59.816Z,4.57
2022-12-08T21:18:30.396Z,4.15
2022-12-08T21:21:05.845Z,4.95
2022-12-08T21:23:35.606Z,5.38
2022-12-08T21:26:11.430Z,5.70
2022-12-08T21:28:42.276Z,3.77
2022-12-08T21:31:13.196Z,5.18
2022-12-08T21:33:42.415Z,4.35
2022-12-08T21:36:15.578Z,4.40
2022-12-08T21:38:45.666Z,5.50
2022-12-08T21:41:37.422Z,3.97
2022-12-08T21:44:09.583Z,4.00
2022-12-08T21:46:38.717Z,4.90
2022-12-08T21:49:08.078Z,4.10
2022-12-08T21:51:41.476Z,5.03
2022-12-08T21:54:15.029Z,4.90
2022-12-08T21:56:48.815Z,3.03
2022-12-08T21:59:19.984Z,3.97
2022-12-08T22:01:49.506Z,4.72
2022-12-08T22:04:21.759Z,5.20
2022-12-08T22:06:51.060Z,4.17
2022-12-08T22:09:20.141Z,6.07
2022-12-08T22:11:49.276Z,7.00
2022-12-08T22:14:19.697Z,5.95
2022-12-08T22:16:48.812Z,8.38
2022-12-08T22:19:18.034Z,6.20
2022-12-08T22:21:47.311Z,5.32
2022-12-08T22:24:16.105Z,5.72
2022-12-08T22:26:44.975Z,6.82
2022-12-08T22:29:13.810Z,5.95
2022-12-08T22:31:44.292Z,4.47
2022-12-08T22:34:14.797Z,3.58
2022-12-08T22:36:44.540Z,6.63
2022-12-08T22:39:13.567Z,2.67
2022-12-08T22:41:42.331Z,4.18
2022-12-08T22:44:12.039Z,5.40
2022-12-08T22:46:41.129Z,3.03
2022-12-08T22:49:11.348Z,3.83
2022-12-08T22:51:42.447Z,3.25
2022-12-08T22:54:12.821Z,4.00
2022-12-08T22:56:41.952Z,4.73
2022-12-08T22:59:10.774Z,3.13
2022-12-08T23:01:39.713Z,2.97
2022-12-08T23:04:14.197Z,2.85
2022-12-08T23:06:47.448Z,3.22
2022-12-08T23:09:16.534Z,3.30
2022-12-08T23:11:45.463Z,4.53
2022-12-08T23:14:14.310Z,3.15
2022-12-08T23:16:43.194Z,5.43
2022-12-08T23:19:12.202Z,2.92
2022-12-08T23:21:41.266Z,3.80
2022-12-08T23:24:11.756Z,3.50
2022-12-08T23:26:40.622Z,4.35
2022-12-08T23:29:09.526Z,4.25
2022-12-08T23:31:39.750Z,3.13
2022-12-08T23:34:08.548Z,3.67
2022-12-08T23:36:37.387Z,3.42
2022-12-08T23:39:06.832Z,3.78
2022-12-08T23:41:37.075Z,5.45
2022-12-08T23:44:06.010Z,2.80
2022-12-08T23:46:35.136Z,3.87
2022-12-08T23:49:04.008Z,2.67
2022-12-08T23:51:32.883Z,5.20
2022-12-08T23:54:01.731Z,4.05
2022-12-08T23:56:30.940Z,6.20
2022-12-08T23:59:02.365Z,4.33
